Terminal Aerodrome Forecast
Issued by NWS

Home | Current Version | Previous Version | Text Only | Print | Product List | Glossary On
Versions: 1 2 3 4 5 6 7 8 9 10 11 12 13 14 15
000
FTUS45 KVEF 242320
TAFHND
TAF
KHND 242320Z 2500/2524 22009KT P6SM SCT080 BKN100
     FM250600 20008KT P6SM VCSH SCT080 BKN100
     FM251000 19008KT P6SM FEW080 SCT100
     FM251200 20008KT P6SM SCT100
     FM252100 19010G18KT P6SM FEW080 SCT100=

USA.gov is the U.S. government's official web portal to all federal, state and local government web resources and services.